createdAt,value
2023-01-05T00:02:00.030Z,19.47
2023-01-05T00:04:29.801Z,22.37
2023-01-05T00:06:59.596Z,21.60
2023-01-05T00:09:30.055Z,20.13
2023-01-05T00:12:12.195Z,21.70
2023-01-05T00:14:56.938Z,22.37
2023-01-05T00:17:40.629Z,15.67
2023-01-05T00:20:30.226Z,20.80
2023-01-05T00:23:00.210Z,20.60
2023-01-05T00:25:31.901Z,20.30
2023-01-05T00:28:01.785Z,17.47
2023-01-05T00:30:37.081Z,21.47
2023-01-05T00:33:06.955Z,20.80
2023-01-05T00:35:36.719Z,19.13
2023-01-05T00:38:06.430Z,26.10
2023-01-05T00:40:37.492Z,22.40
2023-01-05T00:43:07.482Z,23.27
2023-01-05T00:45:39.905Z,19.70
2023-01-05T00:48:09.701Z,24.10
2023-01-05T00:50:39.483Z,22.33
2023-01-05T00:53:09.206Z,22.87
2023-01-05T00:55:38.926Z,20.97
2023-01-05T00:58:08.646Z,20.40
2023-01-05T01:00:47.449Z,25.10
2023-01-05T01:03:17.677Z,24.47
2023-01-05T01:05:47.619Z,24.03
2023-01-05T01:08:17.363Z,19.60
2023-01-05T01:10:47.100Z,17.63
2023-01-05T01:13:16.839Z,21.37
2023-01-05T01:15:49.225Z,22.87
2023-01-05T01:18:19.125Z,21.87
2023-01-05T01:20:48.885Z,18.23
2023-01-05T01:23:18.664Z,22.73
2023-01-05T01:25:48.397Z,22.67
2023-01-05T01:28:18.188Z,21.10
2023-01-05T01:30:50.747Z,18.27
2023-01-05T01:33:20.803Z,22.63
2023-01-05T01:35:53.153Z,17.27
2023-01-05T01:38:23.026Z,22.77
2023-01-05T01:40:53.420Z,28.40
2023-01-05T01:43:49.728Z,22.57
2023-01-05T01:46:23.899Z,20.60
2023-01-05T01:48:57.590Z,16.07
2023-01-05T01:51:32.923Z,18.50
2023-01-05T01:54:07.227Z,19.07
2023-01-05T01:56:41.688Z,26.23
2023-01-05T01:59:12.312Z,17.57
2023-01-05T02:01:44.862Z,21.37
2023-01-05T02:04:14.970Z,20.53
2023-01-05T02:06:44.877Z,26.90
2023-01-05T02:09:14.671Z,21.53
2023-01-05T02:11:53.298Z,19.37
2023-01-05T02:14:35.759Z,18.80
2023-01-05T02:17:19.256Z,26.00
2023-01-05T02:20:26.826Z,17.37
2023-01-05T02:23:32.502Z,20.17
2023-01-05T02:26:20.803Z,17.47
2023-01-05T02:29:15.227Z,14.63
2023-01-05T02:31:51.496Z,20.87
2023-01-05T02:34:27.078Z,16.90
2023-01-05T02:37:01.623Z,18.20
2023-01-05T02:39:36.709Z,24.17
2023-01-05T02:42:08.906Z,18.57
2023-01-05T02:44:38.893Z,17.17
2023-01-05T02:47:41.239Z,25.40
2023-01-05T02:50:17.416Z,22.13
2023-01-05T02:52:54.678Z,22.90
2023-01-05T02:55:29.225Z,21.00
2023-01-05T02:58:04.169Z,20.53
2023-01-05T03:00:38.893Z,23.67
2023-01-05T03:03:16.231Z,20.17
2023-01-05T03:05:53.065Z,23.63
2023-01-05T03:08:32.357Z,18.97
2023-01-05T03:11:18.407Z,20.97
2023-01-05T03:13:51.665Z,20.43
2023-01-05T03:16:25.929Z,23.17
2023-01-05T03:19:12.301Z,17.47
2023-01-05T03:21:54.903Z,22.20
2023-01-05T03:24:37.220Z,16.13
2023-01-05T03:27:21.873Z,16.10
2023-01-05T03:30:04.045Z,18.33
2023-01-05T03:32:49.640Z,21.60
2023-01-05T03:35:34.550Z,21.93
2023-01-05T03:38:18.032Z,20.03
2023-01-05T03:40:49.375Z,22.50
2023-01-05T03:43:19.486Z,20.43
2023-01-05T03:45:54.977Z,21.40
2023-01-05T03:48:26.997Z,18.43
2023-01-05T03:50:59.514Z,23.80
2023-01-05T03:53:29.352Z,22.27
2023-01-05T03:55:59.150Z,19.50
2023-01-05T03:58:29.432Z,17.10
2023-01-05T04:00:59.234Z,16.30
2023-01-05T04:03:31.969Z,23.27
2023-01-05T04:06:04.815Z,20.93
2023-01-05T04:08:34.609Z,18.70
2023-01-05T04:11:14.490Z,22.40
2023-01-05T04:13:44.347Z,23.53
2023-01-05T04:16:14.611Z,22.77
2023-01-05T04:18:44.599Z,21.83
2023-01-05T04:21:17.002Z,16.07
2023-01-05T04:23:46.713Z,18.57
2023-01-05T04:26:16.461Z,22.13
2023-01-05T04:28:46.221Z,24.30
2023-01-05T04:31:15.981Z,22.10
2023-01-05T04:33:45.950Z,21.43
2023-01-05T04:36:19.843Z,18.73
2023-01-05T04:38:49.731Z,20.93
2023-01-05T04:41:19.602Z,18.63
2023-01-05T04:43:56.075Z,17.60
2023-01-05T04:46:25.932Z,17.03
2023-01-05T04:48:57.360Z,25.47
2023-01-05T04:51:29.941Z,22.43
2023-01-05T04:53:59.835Z,18.40
2023-01-05T04:56:29.723Z,18.93
2023-01-05T04:58:59.530Z,23.77
2023-01-05T05:01:29.449Z,19.80
2023-01-05T05:03:59.296Z,18.60
2023-01-05T05:06:31.909Z,20.97
2023-01-05T05:09:01.690Z,21.40
2023-01-05T05:11:31.462Z,19.63
2023-01-05T05:14:01.354Z,21.23
2023-01-05T05:16:31.224Z,20.47
2023-01-05T05:19:01.166Z,21.53
2023-01-05T05:21:33.790Z,21.37
2023-01-05T05:24:03.610Z,24.47
2023-01-05T05:26:45.416Z,22.07
2023-01-05T05:29:15.611Z,19.87
2023-01-05T05:31:45.828Z,19.17
2023-01-05T05:34:15.641Z,21.70
2023-01-05T05:36:48.441Z,21.50
2023-01-05T05:39:19.568Z,23.57
2023-01-05T05:41:49.453Z,18.80
2023-01-05T05:44:19.325Z,17.03
2023-01-05T05:46:49.407Z,24.47
2023-01-05T05:49:19.443Z,19.33
2023-01-05T05:51:52.025Z,22.30
2023-01-05T05:54:21.883Z,21.03
2023-01-05T05:56:52.810Z,17.27
2023-01-05T05:59:22.715Z,21.70
2023-01-05T06:01:53.044Z,20.60
2023-01-05T06:04:23.088Z,20.60
2023-01-05T06:06:55.522Z,22.43
2023-01-05T06:09:25.255Z,20.50
2023-01-05T06:11:55.107Z,18.80
2023-01-05T06:14:24.926Z,19.03
2023-01-05T06:16:54.683Z,23.00
2023-01-05T06:19:24.556Z,24.83
2023-01-05T06:21:57.042Z,16.93
2023-01-05T06:24:26.773Z,17.33
2023-01-05T06:26:56.872Z,19.10
2023-01-05T06:29:26.668Z,18.63
2023-01-05T06:31:56.597Z,23.57
2023-01-05T06:34:26.489Z,20.13
2023-01-05T06:37:02.246Z,20.17
2023-01-05T06:39:32.531Z,21.10
2023-01-05T06:42:02.326Z,26.07
2023-01-05T06:44:32.171Z,20.57
2023-01-05T06:47:02.284Z,17.87
2023-01-05T06:49:32.154Z,20.73
2023-01-05T06:52:04.628Z,22.37
2023-01-05T06:54:34.424Z,17.67
2023-01-05T06:57:04.504Z,20.33
2023-01-05T06:59:34.444Z,19.87
2023-01-05T07:02:04.330Z,17.90
2023-01-05T07:04:34.166Z,21.77
2023-01-05T07:07:06.725Z,24.00
2023-01-05T07:09:36.658Z,21.10
2023-01-05T07:12:06.756Z,21.60
2023-01-05T07:14:37.487Z,20.80
2023-01-05T07:17:07.279Z,27.53
2023-01-05T07:19:38.595Z,22.70
2023-01-05T07:22:11.422Z,18.90
2023-01-05T07:24:41.282Z,16.53
2023-01-05T07:27:11.180Z,23.27
2023-01-05T07:29:41.055Z,18.60
2023-01-05T07:32:10.949Z,22.43
2023-01-05T07:34:40.805Z,24.70
2023-01-05T07:37:13.351Z,22.80
2023-01-05T07:39:43.182Z,21.40
2023-01-05T07:42:13.717Z,21.73
2023-01-05T07:44:43.531Z,18.70
2023-01-05T07:47:13.400Z,25.97
2023-01-05T07:49:43.216Z,22.57
2023-01-05T07:52:15.577Z,20.90
2023-01-05T07:54:45.416Z,17.97
2023-01-05T07:57:15.134Z,24.23
2023-01-05T07:59:45.101Z,23.23
2023-01-05T08:02:14.934Z,18.97
2023-01-05T08:04:44.849Z,19.90
2023-01-05T08:07:17.406Z,22.17
2023-01-05T08:09:59.611Z,22.63
2023-01-05T08:12:31.128Z,24.03
2023-01-05T08:15:00.973Z,21.40
2023-01-05T08:17:30.694Z,18.00
2023-01-05T08:20:00.388Z,16.67
2023-01-05T08:22:32.782Z,15.37
2023-01-05T08:25:02.522Z,18.10
2023-01-05T08:27:32.298Z,13.97
2023-01-05T08:30:02.044Z,15.60
2023-01-05T08:32:31.784Z,12.17
2023-01-05T08:35:01.500Z,11.37
2023-01-05T08:37:33.817Z,10.47
2023-01-05T08:40:03.557Z,11.17
2023-01-05T08:42:33.314Z,6.43
2023-01-05T08:45:03.109Z,8.47
2023-01-05T08:47:32.905Z,5.40
2023-01-05T08:50:03.614Z,6.00
2023-01-05T08:52:36.181Z,8.53
2023-01-05T08:55:06.274Z,7.57
2023-01-05T08:57:36.379Z,10.20
2023-01-05T09:00:07.019Z,9.83
2023-01-05T09:02:36.981Z,9.00
2023-01-05T09:05:07.174Z,10.97
2023-01-05T09:07:39.588Z,14.00
2023-01-05T09:10:10.405Z,10.60
2023-01-05T09:12:40.778Z,7.90
2023-01-05T09:15:11.189Z,8.20
2023-01-05T09:17:41.015Z,6.73
2023-01-05T09:20:12.122Z,7.37
2023-01-05T09:22:45.146Z,9.40
2023-01-05T09:25:14.901Z,6.63
2023-01-05T09:27:44.653Z,11.00
2023-01-05T09:30:17.556Z,11.63
2023-01-05T09:32:47.337Z,8.33
2023-01-05T09:35:17.172Z,7.07
2023-01-05T09:37:50.192Z,9.13
2023-01-05T09:40:19.983Z,10.13
2023-01-05T09:42:50.242Z,9.53
2023-01-05T09:45:27.832Z,8.23
2023-01-05T09:48:00.187Z,18.77
2023-01-05T09:50:33.660Z,11.00
2023-01-05T09:53:06.284Z,8.80
2023-01-05T09:55:36.554Z,10.80
2023-01-05T09:58:13.972Z,4.40
2023-01-05T10:00:47.959Z,9.50
2023-01-05T10:04:01.679Z,9.93
2023-01-05T10:06:20.136Z,6.37
2023-01-05T10:08:54.719Z,9.00
2023-01-05T10:11:44.532Z,6.07
2023-01-05T10:14:19.332Z,9.77
2023-01-05T10:16:57.777Z,9.90
2023-01-05T10:19:37.616Z,9.33
2023-01-05T10:22:18.790Z,7.97
2023-01-05T10:24:58.112Z,6.57
2023-01-05T10:27:32.901Z,8.77
2023-01-05T10:30:14.935Z,5.73
2023-01-05T10:33:27.425Z,5.00
2023-01-05T10:36:07.385Z,8.37
2023-01-05T10:38:52.833Z,9.53
2023-01-05T10:41:33.143Z,7.13
2023-01-05T10:44:33.343Z,8.57
2023-01-05T10:47:03.508Z,9.47
2023-01-05T10:49:35.101Z,11.43
2023-01-05T10:52:06.274Z,9.60
2023-01-05T10:54:41.595Z,10.33
2023-01-05T10:57:42.468Z,12.43
2023-01-05T11:00:18.172Z,12.13
2023-01-05T11:02:53.865Z,11.00
2023-01-05T11:05:33.586Z,12.13
2023-01-05T11:08:07.518Z,13.87
2023-01-05T11:10:41.195Z,12.40
2023-01-05T11:13:25.394Z,11.77
2023-01-05T11:16:02.677Z,12.30
2023-01-05T11:18:37.263Z,13.43
2023-01-05T11:21:16.531Z,10.40
2023-01-05T11:23:47.993Z,8.30
2023-01-05T11:26:25.758Z,7.47
2023-01-05T11:29:03.960Z,9.00
2023-01-05T11:31:43.224Z,9.33
2023-01-05T11:34:28.650Z,8.43
2023-01-05T11:37:07.548Z,12.53
2023-01-05T11:39:44.750Z,7.70
2023-01-05T11:42:24.650Z,11.70
2023-01-05T11:45:20.847Z,11.87
2023-01-05T11:47:57.337Z,11.80
2023-01-05T11:50:29.741Z,14.73
2023-01-05T11:53:01.537Z,9.13
2023-01-05T11:55:40.137Z,12.87
2023-01-05T11:58:26.763Z,10.47
2023-01-05T12:01:29.472Z,10.23
2023-01-05T12:04:16.891Z,15.40
2023-01-05T12:07:09.942Z,13.20
2023-01-05T12:09:42.548Z,11.37
2023-01-05T12:12:35.396Z,10.33
2023-01-05T12:15:32.788Z,11.57
2023-01-05T12:18:19.813Z,11.73
2023-01-05T12:20:59.515Z,10.77
2023-01-05T12:23:43.198Z,9.83
2023-01-05T12:26:23.402Z,10.30
2023-01-05T12:35:36.021Z,8.53
2023-01-05T12:38:34.097Z,12.83
2023-01-05T12:41:37.450Z,8.27
2023-01-05T12:44:24.193Z,8.03
2023-01-05T12:47:10.932Z,8.40
2023-01-05T12:49:45.837Z,12.67
2023-01-05T12:52:22.405Z,9.50
2023-01-05T12:54:59.774Z,13.07
2023-01-05T12:57:37.600Z,11.10
2023-01-05T13:00:14.272Z,9.83
2023-01-05T13:02:47.403Z,11.67
2023-01-05T13:05:24.076Z,11.77
2023-01-05T13:08:03.677Z,11.30
2023-01-05T13:10:42.500Z,10.17
2023-01-05T13:13:16.823Z,12.43
2023-01-05T13:15:55.696Z,11.77
2023-01-05T13:18:28.635Z,11.70
2023-01-05T13:21:01.534Z,8.83
2023-01-05T13:23:35.297Z,17.20
2023-01-05T13:26:11.051Z,9.63
2023-01-05T13:28:40.954Z,14.30
2023-01-05T13:31:41.687Z,17.87
2023-01-05T13:34:42.654Z,16.97
2023-01-05T13:37:45.543Z,11.53
2023-01-05T13:40:37.429Z,20.03
2023-01-05T13:43:48.638Z,12.63
2023-01-05T13:46:44.630Z,14.40
2023-01-05T13:49:30.979Z,12.90
2023-01-05T13:52:03.310Z,10.17
2023-01-05T13:55:00.085Z,13.77
2023-01-05T13:57:33.025Z,14.00
2023-01-05T14:00:10.358Z,15.40
2023-01-05T14:02:47.212Z,15.50
2023-01-05T14:05:26.769Z,14.67
2023-01-05T14:07:58.608Z,12.37
2023-01-05T14:10:31.457Z,19.87
2023-01-05T14:13:03.646Z,10.73
2023-01-05T14:15:44.696Z,12.33
2023-01-05T14:18:55.382Z,11.67
2023-01-05T14:22:03.785Z,10.70
2023-01-05T14:24:36.949Z,13.73
2023-01-05T14:27:10.175Z,11.63
2023-01-05T14:30:12.366Z,11.23
2023-01-05T14:32:45.045Z,11.40
2023-01-05T14:35:31.859Z,18.40
2023-01-05T14:38:05.073Z,10.00
2023-01-05T14:40:38.839Z,11.40
2023-01-05T14:43:23.383Z,10.47
2023-01-05T14:46:07.267Z,9.60
2023-01-05T14:48:40.707Z,11.97
2023-01-05T14:51:20.586Z,11.33
2023-01-05T14:53:52.645Z,12.10
2023-01-05T14:56:28.476Z,9.07
2023-01-05T14:59:02.827Z,12.37
2023-01-05T15:04:14.377Z,11.73
2023-01-05T15:07:03.848Z,14.90
2023-01-05T15:10:06.026Z,13.40
2023-01-05T15:13:05.470Z,12.63
2023-01-05T15:15:45.772Z,12.67
2023-01-05T15:18:48.580Z,12.97
2023-01-05T15:21:53.120Z,10.03
2023-01-05T15:25:02.805Z,10.93
2023-01-05T15:28:08.071Z,13.03
2023-01-05T15:31:00.481Z,9.60
2023-01-05T15:33:37.935Z,7.93
2023-01-05T15:36:09.730Z,8.33
2023-01-05T15:38:47.379Z,8.10
2023-01-05T15:41:22.817Z,11.17
2023-01-05T15:43:54.091Z,13.53
2023-01-05T15:46:26.625Z,10.80
2023-01-05T15:48:57.511Z,11.10
2023-01-05T15:51:30.110Z,7.80
2023-01-05T15:54:02.011Z,12.97
2023-01-05T15:56:39.750Z,12.40
2023-01-05T15:59:24.899Z,10.33
2023-01-05T16:01:54.797Z,9.23
2023-01-05T16:04:28.417Z,7.43
2023-01-05T16:07:03.664Z,5.17
2023-01-05T16:09:35.917Z,10.27
2023-01-05T16:12:23.365Z,9.67
2023-01-05T16:14:57.954Z,9.93
2023-01-05T16:17:31.006Z,8.47
2023-01-05T16:20:04.390Z,11.93
2023-01-05T16:22:41.859Z,9.10
2023-01-05T16:25:18.566Z,11.27
2023-01-05T16:27:58.619Z,11.37
2023-01-05T16:30:34.348Z,9.10
2023-01-05T16:33:11.595Z,14.17
2023-01-05T16:35:47.070Z,11.30
2023-01-05T16:38:28.402Z,14.47
2023-01-05T16:41:19.222Z,9.53
2023-01-05T16:43:55.635Z,11.23
2023-01-05T16:46:37.422Z,9.93
2023-01-05T16:49:26.769Z,12.70
2023-01-05T16:51:57.931Z,8.97
2023-01-05T16:54:37.049Z,11.50
2023-01-05T16:57:24.866Z,11.00
2023-01-05T17:00:00.242Z,11.93
2023-01-05T17:02:49.162Z,11.03
2023-01-05T17:05:22.219Z,14.00
2023-01-05T17:07:55.442Z,9.83
2023-01-05T17:10:27.887Z,12.03
2023-01-05T17:13:15.142Z,12.00
2023-01-05T17:15:56.299Z,12.53
2023-01-05T17:18:28.851Z,13.53
2023-01-05T17:21:01.018Z,14.27
2023-01-05T17:23:32.900Z,18.53
2023-01-05T17:26:09.033Z,18.07
2023-01-05T17:28:42.028Z,19.53
2023-01-05T17:31:15.771Z,17.63
2023-01-05T17:33:45.583Z,10.80
2023-01-05T17:38:46.587Z,10.37
2023-01-05T17:41:17.438Z,14.87
2023-01-05T17:43:47.617Z,18.70
2023-01-05T17:46:23.477Z,12.03
2023-01-05T17:48:53.389Z,11.23
2023-01-05T17:51:23.352Z,13.80
2023-01-05T17:53:53.111Z,12.83
2023-01-05T17:56:23.019Z,13.97
2023-01-05T17:58:53.277Z,17.00
2023-01-05T18:01:27.208Z,17.33
2023-01-05T18:03:57.401Z,17.93
2023-01-05T18:06:27.330Z,11.80
2023-01-05T18:08:57.219Z,13.77
2023-01-05T18:11:27.025Z,14.73
2023-01-05T18:13:56.880Z,12.30
2023-01-05T18:19:00.143Z,18.17
2023-01-05T18:21:29.965Z,13.87
2023-01-05T18:23:59.892Z,12.37
2023-01-05T18:26:29.790Z,18.10
2023-01-05T18:28:59.571Z,16.33
2023-01-05T18:31:33.301Z,15.93
2023-01-05T18:34:03.816Z,14.80
2023-01-05T18:36:33.672Z,13.23
2023-01-05T18:39:03.851Z,17.93
2023-01-05T18:41:33.918Z,14.83
2023-01-05T18:44:03.903Z,14.83
2023-01-05T18:46:40.398Z,17.20
2023-01-05T18:49:11.832Z,16.83
2023-01-05T18:51:42.587Z,16.83
2023-01-05T18:54:14.291Z,19.63
2023-01-05T18:56:44.068Z,14.57
2023-01-05T18:59:15.829Z,22.30
2023-01-05T19:01:48.255Z,16.13
2023-01-05T19:04:19.502Z,17.73
2023-01-05T19:06:49.291Z,20.27
2023-01-05T19:09:19.080Z,18.27
2023-01-05T19:11:50.571Z,18.07
2023-01-05T19:14:20.811Z,16.70
2023-01-05T19:16:54.313Z,17.57
2023-01-05T19:19:24.208Z,15.97
2023-01-05T19:21:55.357Z,16.27
2023-01-05T19:24:28.315Z,18.63
2023-01-05T19:26:58.249Z,19.13
2023-01-05T19:29:47.864Z,13.70
2023-01-05T19:32:20.713Z,16.30
2023-01-05T19:34:50.586Z,13.33
2023-01-05T19:40:09.761Z,13.50
2023-01-05T19:42:40.203Z,11.20
2023-01-05T19:45:11.909Z,13.97
2023-01-05T19:47:44.412Z,9.57
2023-01-05T19:50:15.450Z,11.43
2023-01-05T19:52:45.491Z,13.37
2023-01-05T19:55:18.768Z,11.40
2023-01-05T19:57:48.551Z,14.27
2023-01-05T20:00:19.770Z,9.57
2023-01-05T20:02:52.232Z,7.70
2023-01-05T20:05:22.554Z,11.10
2023-01-05T20:07:52.356Z,8.20
2023-01-05T20:10:23.286Z,7.00
2023-01-05T20:12:54.119Z,8.73
2023-01-05T20:15:24.031Z,7.03
2023-01-05T20:17:56.487Z,8.10
2023-01-05T20:20:26.263Z,8.87
2023-01-05T20:22:56.045Z,10.17
2023-01-05T20:25:25.873Z,8.50
2023-01-05T20:27:55.611Z,9.80
2023-01-05T20:30:25.376Z,7.47
2023-01-05T20:32:57.753Z,9.77
2023-01-05T20:35:27.646Z,12.40
2023-01-05T20:37:57.547Z,11.80
2023-01-05T20:40:27.524Z,13.37
2023-01-05T20:42:57.365Z,13.40
2023-01-05T20:45:27.074Z,14.37
2023-01-05T20:47:59.467Z,16.90
2023-01-05T20:50:29.368Z,15.13
2023-01-05T20:52:59.362Z,20.57
2023-01-05T20:55:29.171Z,14.37
2023-01-05T20:57:59.265Z,16.00
2023-01-05T21:00:29.178Z,12.20
2023-01-05T21:05:56.433Z,14.40
2023-01-05T21:08:26.719Z,17.23
2023-01-05T21:10:57.732Z,13.97
2023-01-05T21:13:31.687Z,15.47
2023-01-05T21:16:04.752Z,17.73
2023-01-05T21:18:37.359Z,19.07
2023-01-05T21:21:08.894Z,19.53
2023-01-05T21:23:39.196Z,16.90
2023-01-05T21:26:13.569Z,17.23
2023-01-05T21:28:46.519Z,16.73
2023-01-05T21:31:18.654Z,20.87
2023-01-05T21:33:51.673Z,16.83
2023-01-05T21:36:25.476Z,17.23
2023-01-05T21:39:01.080Z,20.17
2023-01-05T21:41:45.624Z,22.97
2023-01-05T21:44:17.464Z,18.33
2023-01-05T21:46:47.736Z,22.17
2023-01-05T21:49:31.795Z,24.03
2023-01-05T21:52:13.981Z,22.67
2023-01-05T21:54:58.526Z,28.53
2023-01-05T21:57:28.413Z,22.43
2023-01-05T21:59:58.147Z,20.50
2023-01-05T22:02:27.919Z,18.43
2023-01-05T22:05:00.254Z,23.43
2023-01-05T22:07:30.319Z,20.23
2023-01-05T22:10:00.075Z,22.37
2023-01-05T22:12:29.810Z,24.20
2023-01-05T22:15:00.060Z,19.23
2023-01-05T22:17:30.011Z,24.50
2023-01-05T22:20:02.381Z,22.27
2023-01-05T22:22:32.113Z,25.37
2023-01-05T22:25:01.832Z,23.73
2023-01-05T22:27:32.338Z,24.83
2023-01-05T22:30:02.084Z,26.53
2023-01-05T22:32:31.831Z,24.63
2023-01-05T22:35:04.845Z,24.10
2023-01-05T22:37:34.569Z,24.83
2023-01-05T22:40:04.331Z,23.77
2023-01-05T22:42:34.107Z,23.03
2023-01-05T22:45:03.821Z,23.20
2023-01-05T22:47:33.530Z,22.70
2023-01-05T22:50:05.936Z,23.70
2023-01-05T22:52:35.807Z,21.77
2023-01-05T22:55:05.844Z,22.80
2023-01-05T22:57:35.642Z,25.10
2023-01-05T23:00:05.461Z,27.90
2023-01-05T23:02:35.279Z,25.27
2023-01-05T23:05:09.562Z,23.13
2023-01-05T23:07:39.350Z,25.83
2023-01-05T23:10:10.283Z,22.87
2023-01-05T23:12:40.068Z,22.43
2023-01-05T23:15:11.082Z,26.23
2023-01-05T23:17:40.831Z,25.70
2023-01-05T23:20:14.697Z,26.07
2023-01-05T23:22:44.463Z,19.77
2023-01-05T23:25:14.186Z,24.03
2023-01-05T23:27:43.900Z,17.37
2023-01-05T23:30:14.986Z,19.27
2023-01-05T23:32:44.742Z,17.70
2023-01-05T23:35:17.311Z,20.00
2023-01-05T23:37:47.054Z,18.23
2023-01-05T23:40:16.858Z,17.13
2023-01-05T23:42:46.791Z,25.80
2023-01-05T23:45:17.445Z,19.40
2023-01-05T23:47:47.222Z,19.03
2023-01-05T23:50:19.860Z,19.00
2023-01-05T23:52:49.598Z,25.80
2023-01-05T23:55:19.472Z,20.90
2023-01-05T23:57:49.199Z,17.00
